sensor_id;sensor_type;location;lat;lon;timestamp;temperature;humidity
68354;DHT22;55274;43.060;25.618;2024-03-08T00:00:04;7.00;99.90
68354;DHT22;55274;43.060;25.618;2024-03-08T00:02:38;7.00;99.90
68354;DHT22;55274;43.060;25.618;2024-03-08T00:05:05;7.00;99.90
68354;DHT22;55274;43.060;25.618;2024-03-08T00:07:31;7.00;99.90
68354;DHT22;55274;43.060;25.618;2024-03-08T00:09:58;7.00;99.90
68354;DHT22;55274;43.060;25.618;2024-03-08T00:12:24;6.90;99.90
68354;DHT22;55274;43.060;25.618;2024-03-08T00:14:51;6.90;99.90
68354;DHT22;55274;43.060;25.618;2024-03-08T00:17:17;6.90;99.90
68354;DHT22;55274;43.060;25.618;2024-03-08T00:19:42;6.90;99.90
68354;DHT22;55274;43.060;25.618;2024-03-08T00:22:09;6.80;99.90
68354;DHT22;55274;43.060;25.618;2024-03-08T00:24:37;6.80;99.90
68354;DHT22;55274;43.060;25.618;2024-03-08T00:27:02;6.80;99.90
68354;DHT22;55274;43.060;25.618;2024-03-08T00:29:30;6.80;99.90
68354;DHT22;55274;43.060;25.618;2024-03-08T00:31:56;6.90;99.90
68354;DHT22;55274;43.060;25.618;2024-03-08T00:34:21;6.80;99.90
68354;DHT22;55274;43.060;25.618;2024-03-08T00:36:48;6.80;99.90
68354;DHT22;55274;43.060;25.618;2024-03-08T00:39:14;6.80;99.90
68354;DHT22;55274;43.060;25.618;2024-03-08T00:41:40;6.80;99.90
68354;DHT22;55274;43.060;25.618;2024-03-08T00:44:06;6.80;99.90
68354;DHT22;55274;43.060;25.618;2024-03-08T00:46:31;6.80;99.90
68354;DHT22;55274;43.060;25.618;2024-03-08T00:48:57;6.80;99.90
68354;DHT22;55274;43.060;25.618;2024-03-08T00:51:23;6.80;99.90
68354;DHT22;55274;43.060;25.618;2024-03-08T00:53:49;6.80;99.90
68354;DHT22;55274;43.060;25.618;2024-03-08T00:56:14;6.70;99.90
68354;DHT22;55274;43.060;25.618;2024-03-08T00:58:40;6.70;99.90
68354;DHT22;55274;43.060;25.618;2024-03-08T01:01:06;6.70;99.90
68354;DHT22;55274;43.060;25.618;2024-03-08T01:03:31;6.70;99.90
68354;DHT22;55274;43.060;25.618;2024-03-08T01:05:57;6.70;99.90
68354;DHT22;55274;43.060;25.618;2024-03-08T01:08:26;6.60;99.90
68354;DHT22;55274;43.060;25.618;2024-03-08T01:10:53;6.60;99.90
68354;DHT22;55274;43.060;25.618;2024-03-08T01:13:19;6.60;99.90
68354;DHT22;55274;43.060;25.618;2024-03-08T01:15:45;6.60;99.90
68354;DHT22;55274;43.060;25.618;2024-03-08T01:18:11;6.60;99.90
68354;DHT22;55274;43.060;25.618;2024-03-08T01:20:37;6.60;99.90
68354;DHT22;55274;43.060;25.618;2024-03-08T01:23:03;6.60;99.90
68354;DHT22;55274;43.060;25.618;2024-03-08T01:25:33;6.60;99.90
68354;DHT22;55274;43.060;25.618;2024-03-08T01:27:59;6.50;99.90
68354;DHT22;55274;43.060;25.618;2024-03-08T01:30:24;6.50;99.90
68354;DHT22;55274;43.060;25.618;2024-03-08T01:32:50;6.50;99.90
68354;DHT22;55274;43.060;25.618;2024-03-08T01:35:16;6.50;99.90
68354;DHT22;55274;43.060;25.618;2024-03-08T01:37:42;6.60;99.90
68354;DHT22;55274;43.060;25.618;2024-03-08T01:40:08;6.60;99.90
68354;DHT22;55274;43.060;25.618;2024-03-08T01:42:36;6.60;99.90
68354;DHT22;55274;43.060;25.618;2024-03-08T01:45:06;6.60;99.90
68354;DHT22;55274;43.060;25.618;2024-03-08T01:47:32;6.60;99.90
68354;DHT22;55274;43.060;25.618;2024-03-08T01:50:00;6.60;99.90
68354;DHT22;55274;43.060;25.618;2024-03-08T01:52:29;6.60;99.90
68354;DHT22;55274;43.060;25.618;2024-03-08T01:54:59;6.50;99.90
68354;DHT22;55274;43.060;25.618;2024-03-08T01:57:27;6.50;99.90
68354;DHT22;55274;43.060;25.618;2024-03-08T01:59:54;6.40;99.90
68354;DHT22;55274;43.060;25.618;2024-03-08T02:02:21;6.40;99.90
68354;DHT22;55274;43.060;25.618;2024-03-08T02:04:48;6.40;99.90
68354;DHT22;55274;43.060;25.618;2024-03-08T02:07:14;6.40;99.90
68354;DHT22;55274;43.060;25.618;2024-03-08T02:09:40;6.40;99.90
68354;DHT22;55274;43.060;25.618;2024-03-08T02:12:07;6.40;99.90
68354;DHT22;55274;43.060;25.618;2024-03-08T02:14:33;6.40;99.90
68354;DHT22;55274;43.060;25.618;2024-03-08T02:17:02;6.40;99.90
68354;DHT22;55274;43.060;25.618;2024-03-08T02:19:28;6.30;99.90
68354;DHT22;55274;43.060;25.618;2024-03-08T02:21:54;6.30;99.90
68354;DHT22;55274;43.060;25.618;2024-03-08T02:24:19;6.40;99.90
68354;DHT22;55274;43.060;25.618;2024-03-08T02:26:45;6.30;99.90
68354;DHT22;55274;43.060;25.618;2024-03-08T02:29:11;6.40;99.90
68354;DHT22;55274;43.060;25.618;2024-03-08T02:31:38;6.30;99.90
68354;DHT22;55274;43.060;25.618;2024-03-08T02:34:04;6.30;99.90
68354;DHT22;55274;43.060;25.618;2024-03-08T02:36:30;6.30;99.90
68354;DHT22;55274;43.060;25.618;2024-03-08T02:39:02;6.20;99.90
68354;DHT22;55274;43.060;25.618;2024-03-08T02:41:28;6.20;99.90
68354;DHT22;55274;43.060;25.618;2024-03-08T02:43:54;6.10;99.90
68354;DHT22;55274;43.060;25.618;2024-03-08T02:46:20;6.10;99.90
68354;DHT22;55274;43.060;25.618;2024-03-08T02:48:46;6.20;99.90
68354;DHT22;55274;43.060;25.618;2024-03-08T02:51:12;6.20;99.90
68354;DHT22;55274;43.060;25.618;2024-03-08T02:53:39;6.10;99.90
68354;DHT22;55274;43.060;25.618;2024-03-08T02:56:05;6.10;99.90
68354;DHT22;55274;43.060;25.618;2024-03-08T02:58:34;6.00;99.90
68354;DHT22;55274;43.060;25.618;2024-03-08T03:01:00;6.00;99.90
68354;DHT22;55274;43.060;25.618;2024-03-08T03:03:25;6.00;99.90
68354;DHT22;55274;43.060;25.618;2024-03-08T03:05:52;6.00;99.90
68354;DHT22;55274;43.060;25.618;2024-03-08T03:08:21;6.10;99.90
68354;DHT22;55274;43.060;25.618;2024-03-08T03:10:47;6.00;99.90
68354;DHT22;55274;43.060;25.618;2024-03-08T03:13:13;6.00;99.90
68354;DHT22;55274;43.060;25.618;2024-03-08T03:15:40;6.10;99.90
68354;DHT22;55274;43.060;25.618;2024-03-08T03:18:08;6.10;99.90
68354;DHT22;55274;43.060;25.618;2024-03-08T03:20:34;6.10;99.90
68354;DHT22;55274;43.060;25.618;2024-03-08T03:23:05;6.10;99.90
68354;DHT22;55274;43.060;25.618;2024-03-08T03:25:33;6.10;99.90
68354;DHT22;55274;43.060;25.618;2024-03-08T03:28:01;6.10;99.90
68354;DHT22;55274;43.060;25.618;2024-03-08T03:30:27;6.10;99.90
68354;DHT22;55274;43.060;25.618;2024-03-08T03:32:56;6.10;99.90
68354;DHT22;55274;43.060;25.618;2024-03-08T03:35:26;6.00;99.90
68354;DHT22;55274;43.060;25.618;2024-03-08T03:37:52;6.00;99.90
68354;DHT22;55274;43.060;25.618;2024-03-08T03:40:31;6.00;99.90
68354;DHT22;55274;43.060;25.618;2024-03-08T03:42:57;6.00;99.90
68354;DHT22;55274;43.060;25.618;2024-03-08T03:45:24;6.00;99.90
68354;DHT22;55274;43.060;25.618;2024-03-08T03:47:50;6.00;99.90
68354;DHT22;55274;43.060;25.618;2024-03-08T03:50:18;6.00;99.90
68354;DHT22;55274;43.060;25.618;2024-03-08T03:52:48;6.00;99.90
68354;DHT22;55274;43.060;25.618;2024-03-08T03:55:14;6.00;99.90
68354;DHT22;55274;43.060;25.618;2024-03-08T03:57:40;6.00;99.90
68354;DHT22;55274;43.060;25.618;2024-03-08T04:00:07;6.00;99.90
68354;DHT22;55274;43.060;25.618;2024-03-08T04:02:39;5.90;99.90
68354;DHT22;55274;43.060;25.618;2024-03-08T04:05:07;5.90;99.90
68354;DHT22;55274;43.060;25.618;2024-03-08T04:07:33;6.00;99.90
68354;DHT22;55274;43.060;25.618;2024-03-08T04:10:03;6.00;99.90
68354;DHT22;55274;43.060;25.618;2024-03-08T04:12:29;6.00;99.90
68354;DHT22;55274;43.060;25.618;2024-03-08T04:14:55;6.00;99.90
68354;DHT22;55274;43.060;25.618;2024-03-08T04:17:22;5.90;99.90
68354;DHT22;55274;43.060;25.618;2024-03-08T04:19:49;5.90;99.90
68354;DHT22;55274;43.060;25.618;2024-03-08T04:22:15;5.90;99.90
68354;DHT22;55274;43.060;25.618;2024-03-08T04:24:44;5.90;99.90
68354;DHT22;55274;43.060;25.618;2024-03-08T04:27:10;5.80;99.90
68354;DHT22;55274;43.060;25.618;2024-03-08T04:29:35;5.80;99.90
68354;DHT22;55274;43.060;25.618;2024-03-08T04:32:05;5.80;99.90
68354;DHT22;55274;43.060;25.618;2024-03-08T04:34:32;5.80;99.90
68354;DHT22;55274;43.060;25.618;2024-03-08T04:36:59;5.80;99.90
68354;DHT22;55274;43.060;25.618;2024-03-08T04:39:25;5.80;99.90
68354;DHT22;55274;43.060;25.618;2024-03-08T04:41:55;5.80;99.90
68354;DHT22;55274;43.060;25.618;2024-03-08T04:44:23;5.80;99.90
68354;DHT22;55274;43.060;25.618;2024-03-08T04:46:50;5.80;99.90
68354;DHT22;55274;43.060;25.618;2024-03-08T04:49:16;5.80;99.90
68354;DHT22;55274;43.060;25.618;2024-03-08T04:51:42;5.80;99.90
68354;DHT22;55274;43.060;25.618;2024-03-08T04:54:08;5.80;99.90
68354;DHT22;55274;43.060;25.618;2024-03-08T04:56:35;5.80;99.90
68354;DHT22;55274;43.060;25.618;2024-03-08T04:59:01;5.80;99.90
68354;DHT22;55274;43.060;25.618;2024-03-08T05:01:27;5.80;99.90
68354;DHT22;55274;43.060;25.618;2024-03-08T05:03:53;5.80;99.90
68354;DHT22;55274;43.060;25.618;2024-03-08T05:06:21;5.80;99.90
68354;DHT22;55274;43.060;25.618;2024-03-08T05:08:46;5.80;99.90
68354;DHT22;55274;43.060;25.618;2024-03-08T05:11:12;5.80;99.90
68354;DHT22;55274;43.060;25.618;2024-03-08T05:13:40;5.80;99.90
68354;DHT22;55274;43.060;25.618;2024-03-08T05:16:06;5.80;99.90
68354;DHT22;55274;43.060;25.618;2024-03-08T05:18:33;5.70;99.90
68354;DHT22;55274;43.060;25.618;2024-03-08T05:20:59;5.70;99.90
68354;DHT22;55274;43.060;25.618;2024-03-08T05:23:25;5.60;99.90
68354;DHT22;55274;43.060;25.618;2024-03-08T05:25:51;5.60;99.90
68354;DHT22;55274;43.060;25.618;2024-03-08T05:28:17;5.60;99.90
68354;DHT22;55274;43.060;25.618;2024-03-08T05:30:42;5.60;99.90
68354;DHT22;55274;43.060;25.618;2024-03-08T05:33:08;5.60;99.90
68354;DHT22;55274;43.060;25.618;2024-03-08T05:35:39;5.60;99.90
68354;DHT22;55274;43.060;25.618;2024-03-08T05:38:05;5.70;99.90
68354;DHT22;55274;43.060;25.618;2024-03-08T05:40:32;5.60;99.90
68354;DHT22;55274;43.060;25.618;2024-03-08T05:42:58;5.40;99.90
68354;DHT22;55274;43.060;25.618;2024-03-08T05:45:27;5.50;99.90
68354;DHT22;55274;43.060;25.618;2024-03-08T05:47:53;5.50;99.90
68354;DHT22;55274;43.060;25.618;2024-03-08T05:50:19;5.60;99.90
68354;DHT22;55274;43.060;25.618;2024-03-08T05:52:45;5.60;99.90
68354;DHT22;55274;43.060;25.618;2024-03-08T05:55:11;5.60;99.90
68354;DHT22;55274;43.060;25.618;2024-03-08T05:57:40;5.60;99.90
68354;DHT22;55274;43.060;25.618;2024-03-08T06:00:06;5.50;99.90
68354;DHT22;55274;43.060;25.618;2024-03-08T06:02:32;5.60;99.90
68354;DHT22;55274;43.060;25.618;2024-03-08T06:04:58;5.50;99.90
68354;DHT22;55274;43.060;25.618;2024-03-08T06:07:24;5.50;99.90
68354;DHT22;55274;43.060;25.618;2024-03-08T06:09:50;5.50;99.90
68354;DHT22;55274;43.060;25.618;2024-03-08T06:12:15;5.60;99.90
68354;DHT22;55274;43.060;25.618;2024-03-08T06:14:45;5.60;99.90
68354;DHT22;55274;43.060;25.618;2024-03-08T06:17:11;5.60;99.90
68354;DHT22;55274;43.060;25.618;2024-03-08T06:19:37;5.60;99.90
68354;DHT22;55274;43.060;25.618;2024-03-08T06:22:03;5.70;99.90
68354;DHT22;55274;43.060;25.618;2024-03-08T06:24:34;5.70;99.90
68354;DHT22;55274;43.060;25.618;2024-03-08T06:27:02;5.60;99.90
68354;DHT22;55274;43.060;25.618;2024-03-08T06:29:27;5.60;99.90
68354;DHT22;55274;43.060;25.618;2024-03-08T06:31:53;5.60;99.90
68354;DHT22;55274;43.060;25.618;2024-03-08T06:34:19;5.50;99.90
68354;DHT22;55274;43.060;25.618;2024-03-08T06:36:45;5.60;99.90
68354;DHT22;55274;43.060;25.618;2024-03-08T06:39:10;5.60;99.90
68354;DHT22;55274;43.060;25.618;2024-03-08T06:41:37;5.70;99.90
68354;DHT22;55274;43.060;25.618;2024-03-08T06:44:03;5.70;99.90
68354;DHT22;55274;43.060;25.618;2024-03-08T06:46:29;5.70;99.90
68354;DHT22;55274;43.060;25.618;2024-03-08T06:48:54;5.70;99.90
68354;DHT22;55274;43.060;25.618;2024-03-08T06:51:20;5.70;99.90
68354;DHT22;55274;43.060;25.618;2024-03-08T06:53:46;5.70;99.90
68354;DHT22;55274;43.060;25.618;2024-03-08T06:56:12;5.70;99.90
68354;DHT22;55274;43.060;25.618;2024-03-08T06:58:37;5.70;99.90
68354;DHT22;55274;43.060;25.618;2024-03-08T07:01:03;5.70;99.90
68354;DHT22;55274;43.060;25.618;2024-03-08T07:03:33;5.70;99.90
68354;DHT22;55274;43.060;25.618;2024-03-08T07:05:59;5.70;99.90
68354;DHT22;55274;43.060;25.618;2024-03-08T07:08:26;5.70;99.90
68354;DHT22;55274;43.060;25.618;2024-03-08T07:10:54;5.70;99.90
68354;DHT22;55274;43.060;25.618;2024-03-08T07:13:19;5.70;99.90
68354;DHT22;55274;43.060;25.618;2024-03-08T07:15:45;5.70;99.90
68354;DHT22;55274;43.060;25.618;2024-03-08T07:18:11;5.60;99.90
68354;DHT22;55274;43.060;25.618;2024-03-08T07:20:41;5.60;99.90
68354;DHT22;55274;43.060;25.618;2024-03-08T07:23:07;5.60;99.90
68354;DHT22;55274;43.060;25.618;2024-03-08T07:25:34;5.50;99.90
68354;DHT22;55274;43.060;25.618;2024-03-08T07:28:00;5.60;99.90
68354;DHT22;55274;43.060;25.618;2024-03-08T07:30:27;5.60;99.90
68354;DHT22;55274;43.060;25.618;2024-03-08T07:33:11;5.60;99.90
68354;DHT22;55274;43.060;25.618;2024-03-08T07:35:38;5.70;99.90
68354;DHT22;55274;43.060;25.618;2024-03-08T07:38:08;5.70;99.90
68354;DHT22;55274;43.060;25.618;2024-03-08T07:40:41;5.70;99.90
68354;DHT22;55274;43.060;25.618;2024-03-08T07:43:10;5.70;99.90
68354;DHT22;55274;43.060;25.618;2024-03-08T07:45:39;5.70;99.90
68354;DHT22;55274;43.060;25.618;2024-03-08T07:48:06;5.70;99.90
68354;DHT22;55274;43.060;25.618;2024-03-08T07:50:38;5.80;99.90
68354;DHT22;55274;43.060;25.618;2024-03-08T07:53:05;5.70;99.90
68354;DHT22;55274;43.060;25.618;2024-03-08T07:55:35;5.70;99.90
68354;DHT22;55274;43.060;25.618;2024-03-08T07:58:05;5.80;99.90
68354;DHT22;55274;43.060;25.618;2024-03-08T08:00:31;5.90;99.90
68354;DHT22;55274;43.060;25.618;2024-03-08T08:02:57;5.90;99.90
68354;DHT22;55274;43.060;25.618;2024-03-08T08:05:23;5.90;99.90
68354;DHT22;55274;43.060;25.618;2024-03-08T08:07:49;5.90;99.90
68354;DHT22;55274;43.060;25.618;2024-03-08T08:10:16;6.00;99.90
68354;DHT22;55274;43.060;25.618;2024-03-08T08:12:48;6.00;99.90
68354;DHT22;55274;43.060;25.618;2024-03-08T08:15:14;6.10;99.90
68354;DHT22;55274;43.060;25.618;2024-03-08T08:17:47;6.10;99.90
68354;DHT22;55274;43.060;25.618;2024-03-08T08:20:13;6.20;99.90
68354;DHT22;55274;43.060;25.618;2024-03-08T08:22:39;6.20;99.90
68354;DHT22;55274;43.060;25.618;2024-03-08T08:25:06;6.20;99.90
68354;DHT22;55274;43.060;25.618;2024-03-08T08:27:32;6.20;99.90
68354;DHT22;55274;43.060;25.618;2024-03-08T08:29:58;6.10;99.90
68354;DHT22;55274;43.060;25.618;2024-03-08T08:32:25;6.10;99.90
68354;DHT22;55274;43.060;25.618;2024-03-08T08:34:50;6.10;99.90
68354;DHT22;55274;43.060;25.618;2024-03-08T08:37:16;6.10;99.90
68354;DHT22;55274;43.060;25.618;2024-03-08T08:39:42;6.20;99.90
68354;DHT22;55274;43.060;25.618;2024-03-08T08:42:08;6.30;99.90
68354;DHT22;55274;43.060;25.618;2024-03-08T08:44:35;6.30;99.90
68354;DHT22;55274;43.060;25.618;2024-03-08T08:47:01;6.30;99.90
68354;DHT22;55274;43.060;25.618;2024-03-08T08:49:29;6.30;99.90
68354;DHT22;55274;43.060;25.618;2024-03-08T08:51:56;6.40;99.90
68354;DHT22;55274;43.060;25.618;2024-03-08T08:54:24;6.40;99.90
68354;DHT22;55274;43.060;25.618;2024-03-08T08:56:50;6.40;99.90
68354;DHT22;55274;43.060;25.618;2024-03-08T08:59:16;6.40;99.90
68354;DHT22;55274;43.060;25.618;2024-03-08T09:01:46;6.40;99.90
68354;DHT22;55274;43.060;25.618;2024-03-08T09:04:15;6.40;99.90
68354;DHT22;55274;43.060;25.618;2024-03-08T09:06:42;6.40;99.90
68354;DHT22;55274;43.060;25.618;2024-03-08T09:09:07;6.40;99.90
68354;DHT22;55274;43.060;25.618;2024-03-08T09:11:39;6.50;99.90
68354;DHT22;55274;43.060;25.618;2024-03-08T09:14:07;6.50;99.90
68354;DHT22;55274;43.060;25.618;2024-03-08T09:16:34;6.50;99.90
68354;DHT22;55274;43.060;25.618;2024-03-08T09:19:00;6.50;99.90
68354;DHT22;55274;43.060;25.618;2024-03-08T09:21:26;6.50;99.90
68354;DHT22;55274;43.060;25.618;2024-03-08T09:23:53;6.50;99.90
68354;DHT22;55274;43.060;25.618;2024-03-08T09:26:19;6.60;99.90
68354;DHT22;55274;43.060;25.618;2024-03-08T09:28:45;6.60;99.90
68354;DHT22;55274;43.060;25.618;2024-03-08T09:31:11;6.60;99.90
68354;DHT22;55274;43.060;25.618;2024-03-08T09:33:37;6.60;99.90
68354;DHT22;55274;43.060;25.618;2024-03-08T09:36:08;6.60;99.90
68354;DHT22;55274;43.060;25.618;2024-03-08T09:38:34;6.60;99.90
68354;DHT22;55274;43.060;25.618;2024-03-08T09:41:00;6.60;99.90
68354;DHT22;55274;43.060;25.618;2024-03-08T09:43:28;6.60;99.90
68354;DHT22;55274;43.060;25.618;2024-03-08T09:45:54;6.60;99.90
68354;DHT22;55274;43.060;25.618;2024-03-08T09:48:22;6.60;99.90
68354;DHT22;55274;43.060;25.618;2024-03-08T09:50:48;6.60;99.90
68354;DHT22;55274;43.060;25.618;2024-03-08T09:53:15;6.60;99.90
68354;DHT22;55274;43.060;25.618;2024-03-08T09:55:42;6.60;99.90
68354;DHT22;55274;43.060;25.618;2024-03-08T09:58:15;6.50;99.90
68354;DHT22;55274;43.060;25.618;2024-03-08T10:00:53;6.60;99.90
68354;DHT22;55274;43.060;25.618;2024-03-08T10:03:19;6.60;99.90
68354;DHT22;55274;43.060;25.618;2024-03-08T10:05:45;6.60;99.90
68354;DHT22;55274;43.060;25.618;2024-03-08T10:08:12;6.60;99.90
68354;DHT22;55274;43.060;25.618;2024-03-08T10:10:39;6.50;99.90
68354;DHT22;55274;43.060;25.618;2024-03-08T10:13:08;6.50;99.90
68354;DHT22;55274;43.060;25.618;2024-03-08T10:15:39;6.50;99.90
68354;DHT22;55274;43.060;25.618;2024-03-08T10:18:06;6.50;99.90
68354;DHT22;55274;43.060;25.618;2024-03-08T10:20:32;6.50;99.90
68354;DHT22;55274;43.060;25.618;2024-03-08T10:23:02;6.50;99.90
68354;DHT22;55274;43.060;25.618;2024-03-08T10:25:35;6.50;99.90
68354;DHT22;55274;43.060;25.618;2024-03-08T10:28:03;6.50;99.90
68354;DHT22;55274;43.060;25.618;2024-03-08T10:30:32;6.50;99.90
68354;DHT22;55274;43.060;25.618;2024-03-08T10:32:58;6.50;99.90
68354;DHT22;55274;43.060;25.618;2024-03-08T10:35:24;6.50;99.90
68354;DHT22;55274;43.060;25.618;2024-03-08T10:37:52;6.50;99.90
68354;DHT22;55274;43.060;25.618;2024-03-08T10:40:25;6.50;99.90
68354;DHT22;55274;43.060;25.618;2024-03-08T10:42:56;6.50;99.90
68354;DHT22;55274;43.060;25.618;2024-03-08T10:47:49;6.50;99.90
68354;DHT22;55274;43.060;25.618;2024-03-08T10:50:20;6.50;99.90
68354;DHT22;55274;43.060;25.618;2024-03-08T10:52:51;6.50;99.90
68354;DHT22;55274;43.060;25.618;2024-03-08T10:55:20;6.40;99.90
68354;DHT22;55274;43.060;25.618;2024-03-08T10:57:46;6.40;99.90
68354;DHT22;55274;43.060;25.618;2024-03-08T11:00:17;6.40;99.90
68354;DHT22;55274;43.060;25.618;2024-03-08T11:02:45;6.40;99.90
68354;DHT22;55274;43.060;25.618;2024-03-08T11:05:31;6.40;99.90
68354;DHT22;55274;43.060;25.618;2024-03-08T11:08:01;6.30;99.90
68354;DHT22;55274;43.060;25.618;2024-03-08T11:10:29;6.40;99.90
68354;DHT22;55274;43.060;25.618;2024-03-08T11:12:54;6.30;99.90
68354;DHT22;55274;43.060;25.618;2024-03-08T11:15:20;6.30;99.90
68354;DHT22;55274;43.060;25.618;2024-03-08T11:17:50;6.30;99.90
68354;DHT22;55274;43.060;25.618;2024-03-08T11:20:20;6.30;99.90
68354;DHT22;55274;43.060;25.618;2024-03-08T11:25:41;6.20;99.90
68354;DHT22;55274;43.060;25.618;2024-03-08T11:28:15;6.20;99.90
68354;DHT22;55274;43.060;25.618;2024-03-08T11:33:32;6.20;99.90
68354;DHT22;55274;43.060;25.618;2024-03-08T11:36:11;6.20;99.90
68354;DHT22;55274;43.060;25.618;2024-03-08T11:38:40;6.20;99.90
68354;DHT22;55274;43.060;25.618;2024-03-08T11:41:07;6.30;99.90
68354;DHT22;55274;43.060;25.618;2024-03-08T11:43:33;6.30;99.90
68354;DHT22;55274;43.060;25.618;2024-03-08T11:46:09;6.30;99.90
68354;DHT22;55274;43.060;25.618;2024-03-08T11:48:35;6.30;99.90
68354;DHT22;55274;43.060;25.618;2024-03-08T11:51:04;6.40;99.90
68354;DHT22;55274;43.060;25.618;2024-03-08T11:53:30;6.40;99.90
68354;DHT22;55274;43.060;25.618;2024-03-08T11:56:14;6.40;99.90
68354;DHT22;55274;43.060;25.618;2024-03-08T11:58:40;6.40;99.90
68354;DHT22;55274;43.060;25.618;2024-03-08T12:01:08;6.40;99.90
68354;DHT22;55274;43.060;25.618;2024-03-08T12:03:42;6.40;99.90
68354;DHT22;55274;43.060;25.618;2024-03-08T12:06:11;6.40;99.90
68354;DHT22;55274;43.060;25.618;2024-03-08T12:08:40;6.50;99.90
68354;DHT22;55274;43.060;25.618;2024-03-08T12:11:06;6.40;99.90
68354;DHT22;55274;43.060;25.618;2024-03-08T12:13:33;6.50;99.90
68354;DHT22;55274;43.060;25.618;2024-03-08T12:16:00;6.50;99.90
68354;DHT22;55274;43.060;25.618;2024-03-08T12:18:35;6.40;99.90
68354;DHT22;55274;43.060;25.618;2024-03-08T12:23:31;6.40;99.90
68354;DHT22;55274;43.060;25.618;2024-03-08T12:25:57;6.40;99.90
68354;DHT22;55274;43.060;25.618;2024-03-08T12:28:23;6.40;99.90
68354;DHT22;55274;43.060;25.618;2024-03-08T12:30:52;6.40;99.90
68354;DHT22;55274;43.060;25.618;2024-03-08T12:33:24;6.40;99.90
68354;DHT22;55274;43.060;25.618;2024-03-08T12:35:54;6.40;99.90
68354;DHT22;55274;43.060;25.618;2024-03-08T12:38:21;6.40;99.90
68354;DHT22;55274;43.060;25.618;2024-03-08T12:40:50;6.40;99.90
68354;DHT22;55274;43.060;25.618;2024-03-08T12:43:20;6.40;99.90
68354;DHT22;55274;43.060;25.618;2024-03-08T12:45:46;6.40;99.90
68354;DHT22;55274;43.060;25.618;2024-03-08T12:48:15;6.40;99.90
68354;DHT22;55274;43.060;25.618;2024-03-08T12:50:41;6.40;99.90
68354;DHT22;55274;43.060;25.618;2024-03-08T12:53:11;6.30;99.90
68354;DHT22;55274;43.060;25.618;2024-03-08T12:55:36;6.30;99.90
68354;DHT22;55274;43.060;25.618;2024-03-08T12:58:02;6.30;99.90
68354;DHT22;55274;43.060;25.618;2024-03-08T13:00:28;6.30;99.90
68354;DHT22;55274;43.060;25.618;2024-03-08T13:02:54;6.30;99.90
68354;DHT22;55274;43.060;25.618;2024-03-08T13:05:21;6.20;99.90
68354;DHT22;55274;43.060;25.618;2024-03-08T13:07:46;6.20;99.90
68354;DHT22;55274;43.060;25.618;2024-03-08T13:10:16;6.30;99.90
68354;DHT22;55274;43.060;25.618;2024-03-08T13:12:45;6.30;99.90
68354;DHT22;55274;43.060;25.618;2024-03-08T13:15:11;6.30;99.90
68354;DHT22;55274;43.060;25.618;2024-03-08T13:17:41;6.20;99.90
68354;DHT22;55274;43.060;25.618;2024-03-08T13:20:08;6.20;99.90
68354;DHT22;55274;43.060;25.618;2024-03-08T13:22:35;6.20;99.90
68354;DHT22;55274;43.060;25.618;2024-03-08T13:25:01;6.20;99.90
68354;DHT22;55274;43.060;25.618;2024-03-08T13:27:28;6.20;99.90
68354;DHT22;55274;43.060;25.618;2024-03-08T13:29:54;6.20;99.90
68354;DHT22;55274;43.060;25.618;2024-03-08T13:32:20;6.20;99.90
68354;DHT22;55274;43.060;25.618;2024-03-08T13:34:46;6.30;99.90
68354;DHT22;55274;43.060;25.618;2024-03-08T13:37:16;6.30;99.90
68354;DHT22;55274;43.060;25.618;2024-03-08T13:39:42;6.30;99.90
68354;DHT22;55274;43.060;25.618;2024-03-08T13:44:45;6.30;99.90
68354;DHT22;55274;43.060;25.618;2024-03-08T13:47:17;6.40;99.90
68354;DHT22;55274;43.060;25.618;2024-03-08T13:49:44;6.40;99.90
68354;DHT22;55274;43.060;25.618;2024-03-08T13:52:10;6.50;99.90
68354;DHT22;55274;43.060;25.618;2024-03-08T13:54:36;6.50;99.90
68354;DHT22;55274;43.060;25.618;2024-03-08T13:57:04;6.50;99.90
68354;DHT22;55274;43.060;25.618;2024-03-08T13:59:31;6.60;99.90
68354;DHT22;55274;43.060;25.618;2024-03-08T14:01:59;6.50;99.90
68354;DHT22;55274;43.060;25.618;2024-03-08T14:04:26;6.50;99.90
68354;DHT22;55274;43.060;25.618;2024-03-08T14:06:53;6.50;99.90
68354;DHT22;55274;43.060;25.618;2024-03-08T14:09:23;6.40;99.90
68354;DHT22;55274;43.060;25.618;2024-03-08T14:11:51;6.40;99.90
68354;DHT22;55274;43.060;25.618;2024-03-08T14:14:20;6.30;99.90
68354;DHT22;55274;43.060;25.618;2024-03-08T14:16:47;6.40;99.90
68354;DHT22;55274;43.060;25.618;2024-03-08T14:19:13;6.40;99.90
68354;DHT22;55274;43.060;25.618;2024-03-08T14:21:40;6.30;99.90
68354;DHT22;55274;43.060;25.618;2024-03-08T14:24:08;6.30;99.90
68354;DHT22;55274;43.060;25.618;2024-03-08T14:26:34;6.30;99.90
68354;DHT22;55274;43.060;25.618;2024-03-08T14:29:00;6.30;99.90
68354;DHT22;55274;43.060;25.618;2024-03-08T14:31:25;6.30;99.90
68354;DHT22;55274;43.060;25.618;2024-03-08T14:33:52;6.30;99.90
68354;DHT22;55274;43.060;25.618;2024-03-08T14:36:19;6.30;99.90
68354;DHT22;55274;43.060;25.618;2024-03-08T14:38:49;6.40;99.90
68354;DHT22;55274;43.060;25.618;2024-03-08T14:41:14;6.30;99.90
68354;DHT22;55274;43.060;25.618;2024-03-08T14:43:43;6.30;99.90
68354;DHT22;55274;43.060;25.618;2024-03-08T14:46:13;6.30;99.90
68354;DHT22;55274;43.060;25.618;2024-03-08T14:48:52;6.30;99.90
68354;DHT22;55274;43.060;25.618;2024-03-08T14:51:21;6.20;99.90
68354;DHT22;55274;43.060;25.618;2024-03-08T14:53:52;6.10;99.90
68354;DHT22;55274;43.060;25.618;2024-03-08T14:56:18;6.10;99.90
68354;DHT22;55274;43.060;25.618;2024-03-08T14:58:45;6.20;99.90
68354;DHT22;55274;43.060;25.618;2024-03-08T15:01:12;6.20;99.90
68354;DHT22;55274;43.060;25.618;2024-03-08T15:03:41;6.20;99.90
68354;DHT22;55274;43.060;25.618;2024-03-08T15:06:08;6.20;99.90
68354;DHT22;55274;43.060;25.618;2024-03-08T15:08:39;6.20;99.90
68354;DHT22;55274;43.060;25.618;2024-03-08T15:11:08;6.20;99.90
68354;DHT22;55274;43.060;25.618;2024-03-08T15:13:34;6.10;99.90
68354;DHT22;55274;43.060;25.618;2024-03-08T15:16:10;6.10;99.90
68354;DHT22;55274;43.060;25.618;2024-03-08T15:18:42;6.10;99.90
68354;DHT22;55274;43.060;25.618;2024-03-08T15:21:13;6.10;99.90
68354;DHT22;55274;43.060;25.618;2024-03-08T15:23:43;6.00;99.90
68354;DHT22;55274;43.060;25.618;2024-03-08T15:26:13;6.00;99.90
68354;DHT22;55274;43.060;25.618;2024-03-08T15:28:39;6.00;99.90
68354;DHT22;55274;43.060;25.618;2024-03-08T15:31:05;5.90;99.90
68354;DHT22;55274;43.060;25.618;2024-03-08T15:33:36;6.00;99.90
68354;DHT22;55274;43.060;25.618;2024-03-08T15:36:16;5.90;99.90
68354;DHT22;55274;43.060;25.618;2024-03-08T15:38:43;5.90;99.90
68354;DHT22;55274;43.060;25.618;2024-03-08T15:41:16;5.90;99.90
68354;DHT22;55274;43.060;25.618;2024-03-08T15:43:43;5.90;99.90